createdAt,value
2018-07-06T00:05:19.825Z,57.50
2018-07-06T00:10:40.410Z,58.80
2018-07-06T00:16:00.859Z,61.00
2018-07-06T00:21:21.232Z,60.00
2018-07-06T00:26:41.615Z,60.00
2018-07-06T00:32:01.869Z,60.50
2018-07-06T00:37:22.142Z,62.50
2018-07-06T00:42:42.414Z,61.70
2018-07-06T00:48:02.676Z,61.60
2018-07-06T00:53:23.317Z,62.70
2018-07-06T00:58:43.861Z,62.80
2018-07-06T01:04:04.110Z,62.00
2018-07-06T01:09:24.460Z,61.10
2018-07-06T01:14:44.620Z,62.50
2018-07-06T01:20:05.250Z,61.50
2018-07-06T01:25:25.781Z,58.90
2018-07-06T01:30:46.384Z,59.70
2018-07-06T01:36:06.607Z,59.00
2018-07-06T01:41:26.765Z,59.60
2018-07-06T01:46:47.088Z,59.40
2018-07-06T01:52:07.626Z,61.50
2018-07-06T01:57:27.871Z,62.20
2018-07-06T02:02:48.012Z,64.10
2018-07-06T02:08:08.439Z,64.90
2018-07-06T02:13:28.536Z,66.30
2018-07-06T02:18:48.833Z,67.20
2018-07-06T02:24:09.488Z,67.80
2018-07-06T02:29:30.000Z,69.30
2018-07-06T02:34:50.507Z,70.70
2018-07-06T02:40:10.833Z,70.80
2018-07-06T02:45:31.111Z,72.50
2018-07-06T02:50:51.683Z,73.90
2018-07-06T02:56:12.044Z,74.10
2018-07-06T03:01:32.673Z,73.60
2018-07-06T03:06:53.280Z,73.60
2018-07-06T03:12:13.623Z,74.10
2018-07-06T03:17:34.018Z,74.20
2018-07-06T03:22:54.723Z,75.40
2018-07-06T03:28:15.387Z,75.40
2018-07-06T03:33:35.687Z,74.90
2018-07-06T03:38:56.248Z,73.80
2018-07-06T03:44:16.781Z,74.20
2018-07-06T03:49:37.000Z,74.90
2018-07-06T03:54:57.315Z,74.60
2018-07-06T04:00:17.740Z,73.50
2018-07-06T04:05:37.940Z,74.00
2018-07-06T04:10:58.427Z,73.10
2018-07-06T04:16:18.952Z,72.70
2018-07-06T04:21:39.176Z,70.60
2018-07-06T04:26:59.696Z,69.40
2018-07-06T04:32:20.084Z,66.20
2018-07-06T04:37:40.851Z,64.10
2018-07-06T04:43:01.223Z,60.70
2018-07-06T04:48:21.632Z,60.60
2018-07-06T04:53:41.830Z,60.30
2018-07-06T04:59:02.363Z,57.20
2018-07-06T05:04:22.979Z,52.30
2018-07-06T05:09:43.301Z,52.60
2018-07-06T05:15:03.584Z,52.70
2018-07-06T05:20:23.903Z,51.20
2018-07-06T05:25:44.163Z,53.50
2018-07-06T05:31:04.540Z,52.60
2018-07-06T05:41:39.399Z,43.10
2018-07-06T05:46:59.920Z,37.50
2018-07-06T05:52:20.332Z,36.60
2018-07-06T05:57:40.732Z,36.10
2018-07-06T06:03:01.351Z,36.60
2018-07-06T06:08:02.792Z,36.80
2018-07-06T06:13:06.047Z,38.10
2018-07-06T06:18:09.319Z,38.80
2018-07-06T06:23:12.320Z,40.70
2018-07-06T06:28:15.604Z,43.50
2018-07-06T06:33:18.749Z,43.00
2018-07-06T06:38:21.931Z,42.70
2018-07-06T06:43:25.177Z,44.20
2018-07-06T06:48:28.338Z,43.40
2018-07-06T06:53:31.431Z,42.50
2018-07-06T07:03:37.708Z,42.00
2018-07-06T07:08:40.792Z,40.40
2018-07-06T07:13:43.892Z,37.70
2018-07-06T07:18:47.336Z,35.10
2018-07-06T07:23:50.657Z,35.00
2018-07-06T07:28:53.724Z,35.20
2018-07-06T07:33:56.917Z,34.00
2018-07-06T07:39:00.187Z,33.80
2018-07-06T07:44:03.481Z,32.30
2018-07-06T07:49:06.576Z,33.10
2018-07-06T07:54:23.388Z,32.50
2018-07-06T07:59:28.256Z,29.30
2018-07-06T08:04:31.795Z,28.90
2018-07-06T08:09:35.924Z,28.00
2018-07-06T08:14:39.055Z,31.40
2018-07-06T08:19:42.352Z,27.90
2018-07-06T08:24:45.644Z,25.90
2018-07-06T08:29:48.959Z,25.80
2018-07-06T08:35:09.077Z,25.10
2018-07-06T08:40:12.282Z,24.60
2018-07-06T08:45:15.469Z,20.80
2018-07-06T08:50:18.605Z,22.40
2018-07-06T08:55:21.711Z,23.50
2018-07-06T09:00:24.763Z,22.70
2018-07-06T09:05:28.007Z,24.30
2018-07-06T09:10:31.304Z,24.60
2018-07-06T09:15:34.407Z,25.10
2018-07-06T09:20:37.445Z,23.50
2018-07-06T09:25:40.748Z,25.00
2018-07-06T09:30:43.670Z,28.00
2018-07-06T09:35:46.683Z,24.20
2018-07-06T09:40:49.813Z,23.60
2018-07-06T09:45:53.185Z,25.80
2018-07-06T09:55:59.594Z,24.00
2018-07-06T10:01:02.883Z,25.00
2018-07-06T10:06:05.917Z,24.40
2018-07-06T10:11:09.090Z,25.70
2018-07-06T10:16:12.675Z,22.10
2018-07-06T10:21:15.752Z,25.80
2018-07-06T10:26:18.744Z,27.10
2018-07-06T10:31:38.272Z,26.60
2018-07-06T10:36:41.422Z,29.70
2018-07-06T10:41:44.628Z,29.10
2018-07-06T10:46:47.889Z,26.10
2018-07-06T10:51:51.165Z,27.00
2018-07-06T10:56:55.018Z,28.50
2018-07-06T11:01:58.359Z,26.40
2018-07-06T11:07:01.449Z,25.90
2018-07-06T11:12:04.819Z,25.50
2018-07-06T11:17:07.814Z,26.00
2018-07-06T11:22:11.135Z,25.60
2018-07-06T11:27:14.444Z,23.90
2018-07-06T11:32:17.632Z,23.30
2018-07-06T11:37:20.703Z,24.50
2018-07-06T11:42:23.958Z,24.70
2018-07-06T11:47:27.018Z,24.80
2018-07-06T11:52:29.954Z,23.30
2018-07-06T11:57:33.176Z,25.50
2018-07-06T12:02:36.359Z,26.70
2018-07-06T12:07:39.672Z,25.20
2018-07-06T12:12:42.649Z,22.20
2018-07-06T12:17:45.622Z,24.90
2018-07-06T12:22:48.683Z,25.00
2018-07-06T12:27:51.904Z,25.00
2018-07-06T12:32:55.007Z,26.30
2018-07-06T12:37:58.102Z,23.50
2018-07-06T12:43:01.641Z,22.90
2018-07-06T12:48:05.586Z,21.00
2018-07-06T12:53:08.783Z,21.50
2018-07-06T12:58:12.064Z,20.50
2018-07-06T13:03:15.055Z,19.50
2018-07-06T13:08:18.238Z,19.30
2018-07-06T13:13:21.232Z,18.50
2018-07-06T13:18:24.584Z,18.80
2018-07-06T13:23:27.828Z,19.50
2018-07-06T13:28:30.848Z,18.80
2018-07-06T13:33:34.115Z,17.00
2018-07-06T13:38:37.425Z,16.40
2018-07-06T13:43:40.552Z,17.40
2018-07-06T13:48:43.756Z,17.80
2018-07-06T13:53:47.648Z,15.30
2018-07-06T13:58:50.906Z,15.30
2018-07-06T14:03:53.885Z,15.60
2018-07-06T14:08:57.261Z,16.10
2018-07-06T14:14:00.631Z,12.80
2018-07-06T14:19:03.824Z,15.80
2018-07-06T14:24:06.913Z,17.20
2018-07-06T14:29:09.890Z,16.40
2018-07-06T14:34:12.938Z,17.60
2018-07-06T14:39:15.943Z,14.70
2018-07-06T14:44:18.891Z,15.80
2018-07-06T14:49:21.916Z,16.40
2018-07-06T14:54:25.984Z,14.20
2018-07-06T14:59:28.987Z,16.40
2018-07-06T15:04:31.989Z,16.00
2018-07-06T15:09:35.014Z,15.30
2018-07-06T15:14:38.032Z,15.50
2018-07-06T15:19:41.149Z,15.70
2018-07-06T15:24:45.750Z,15.60
2018-07-06T15:29:48.671Z,16.30
2018-07-06T15:34:51.570Z,16.30
2018-07-06T15:39:54.505Z,17.20
2018-07-06T15:44:57.459Z,16.20
2018-07-06T15:50:00.493Z,15.60
2018-07-06T15:55:03.471Z,16.40
2018-07-06T16:00:06.585Z,17.10
2018-07-06T16:05:09.529Z,17.60
2018-07-06T16:10:12.531Z,17.10
2018-07-06T16:15:15.605Z,18.60
2018-07-06T16:20:18.664Z,19.10
2018-07-06T16:25:21.938Z,18.00
2018-07-06T16:30:25.144Z,19.30
2018-07-06T16:35:28.155Z,19.70
2018-07-06T16:40:31.200Z,19.30
2018-07-06T16:45:34.290Z,19.30
2018-07-06T16:50:37.300Z,19.90
2018-07-06T16:55:40.338Z,19.50
2018-07-06T17:00:43.462Z,20.00
2018-07-06T17:05:46.541Z,18.70
2018-07-06T17:10:49.493Z,19.20
2018-07-06T17:15:52.600Z,20.10
2018-07-06T17:20:55.720Z,19.90
2018-07-06T17:25:58.801Z,20.10
2018-07-06T17:31:01.787Z,19.30
2018-07-06T17:36:04.859Z,19.50
2018-07-06T17:41:07.837Z,19.80
2018-07-06T17:46:10.774Z,19.60
2018-07-06T17:51:13.821Z,19.60
2018-07-06T17:56:16.793Z,19.60
2018-07-06T18:01:19.725Z,19.60
2018-07-06T18:06:22.668Z,20.00
2018-07-06T18:11:25.729Z,20.40
2018-07-06T18:16:28.704Z,21.20
2018-07-06T18:21:32.171Z,21.60
2018-07-06T18:26:35.085Z,21.50
2018-07-06T18:31:38.070Z,21.80
2018-07-06T18:36:41.003Z,22.10
2018-07-06T18:41:43.962Z,23.70
2018-07-06T18:46:47.248Z,24.20
2018-07-06T18:51:50.312Z,24.50
2018-07-06T18:56:53.371Z,24.50
2018-07-06T19:01:56.440Z,26.00
2018-07-06T19:06:59.525Z,25.30
2018-07-06T19:12:02.876Z,25.40
2018-07-06T19:17:06.304Z,26.20
2018-07-06T19:22:09.428Z,26.60
2018-07-06T19:27:12.497Z,27.20
2018-07-06T19:32:15.831Z,27.50
2018-07-06T19:37:18.995Z,26.30
2018-07-06T19:42:22.141Z,26.40
2018-07-06T19:47:25.308Z,26.60
2018-07-06T19:52:28.339Z,27.50
2018-07-06T19:57:31.694Z,27.60
2018-07-06T20:02:34.856Z,26.80
2018-07-06T20:07:37.962Z,26.80
2018-07-06T20:12:41.043Z,27.80
2018-07-06T20:17:44.219Z,27.40
2018-07-06T20:22:47.498Z,27.50
2018-07-06T20:27:50.649Z,27.40
2018-07-06T20:32:53.766Z,28.10
2018-07-06T20:37:56.954Z,28.30
2018-07-06T20:43:00.014Z,28.60
2018-07-06T20:48:03.096Z,29.50
2018-07-06T20:53:06.248Z,30.60
2018-07-06T20:58:09.493Z,31.90
2018-07-06T21:03:13.175Z,32.50
2018-07-06T21:08:16.365Z,32.90
2018-07-06T21:13:20.432Z,34.30
2018-07-06T21:18:24.112Z,34.50
2018-07-06T21:23:27.871Z,35.20
2018-07-06T21:28:30.900Z,36.10
2018-07-06T21:33:33.977Z,36.50
2018-07-06T21:38:37.131Z,36.60
2018-07-06T21:43:40.233Z,37.30
2018-07-06T21:48:43.304Z,37.60
2018-07-06T21:53:46.443Z,38.60
2018-07-06T21:58:49.956Z,38.70
2018-07-06T22:03:52.992Z,38.60
2018-07-06T22:08:55.992Z,40.80
2018-07-06T22:13:59.013Z,39.90
2018-07-06T22:19:02.084Z,38.50
2018-07-06T22:24:05.423Z,38.20
2018-07-06T22:29:08.547Z,38.80
2018-07-06T22:34:11.560Z,39.00
2018-07-06T22:39:14.620Z,39.20
2018-07-06T22:44:17.777Z,39.10
2018-07-06T22:49:21.042Z,41.40
2018-07-06T22:54:24.084Z,41.50
2018-07-06T22:59:27.174Z,41.90
2018-07-06T23:04:30.228Z,42.40
2018-07-06T23:09:33.282Z,42.00
2018-07-06T23:14:36.286Z,42.80
2018-07-06T23:19:39.279Z,43.30
2018-07-06T23:24:42.292Z,44.60
2018-07-06T23:29:45.293Z,45.20
2018-07-06T23:34:48.293Z,45.50
2018-07-06T23:39:51.325Z,46.40
2018-07-06T23:44:54.319Z,48.30
2018-07-06T23:49:57.336Z,49.90
2018-07-06T23:55:00.754Z,48.90
